createdAt,value
2018-07-26T02:58:48.396Z,69.32
2018-07-26T03:52:31.450Z,71.22
2018-07-26T03:53:11.646Z,70.84
2018-07-26T03:53:52.030Z,71.42
2018-07-26T03:54:32.428Z,71.22
2018-07-26T03:55:12.880Z,71.7
2018-07-26T03:55:53.442Z,71.7
2018-07-26T03:56:33.898Z,71.42
2018-07-26T03:57:14.458Z,72
2018-07-26T03:57:54.753Z,71.9
2018-07-26T03:58:35.069Z,71.61
2018-07-26T03:59:16.505Z,71.7
2018-07-26T03:59:57.147Z,72.19
2018-07-26T04:00:37.569Z,72.19
2018-07-26T04:01:18.086Z,72.48
2018-07-26T04:01:58.417Z,72.19
2018-07-26T04:02:39.074Z,72.38
2018-07-26T04:42:33.919Z,73.5
2018-07-26T04:43:34.839Z,73.89
2018-07-26T04:44:39.357Z,73.99
2018-07-26T04:45:41.283Z,73.85
2018-07-26T04:46:48.086Z,73.75
2018-07-26T04:47:47.025Z,73.95
2018-07-26T04:48:45.726Z,73.75
2018-07-26T04:49:50.554Z,73.85
2018-07-26T04:50:51.400Z,73.75
2018-07-26T04:51:53.915Z,74.18
2018-07-26T04:53:14.848Z,73.5
2018-07-26T04:55:32.456Z,73.31
2018-07-26T04:58:24.755Z,73.02
2018-07-26T05:01:34.737Z,72.44
2018-07-26T05:03:52.459Z,72.25
2018-07-26T05:06:03.374Z,71.86
2018-07-26T05:07:15.219Z,72
2018-07-26T05:08:16.782Z,71.51
2018-07-26T05:08:56.855Z,71.32
2018-07-26T05:09:37.245Z,70.84
2018-07-26T05:11:33.600Z,70.54
2018-07-26T05:14:01.615Z,69.13
2018-07-26T05:15:04.332Z,68.84
2018-07-26T05:16:05.692Z,68.4
2018-07-26T05:18:50.248Z,65.27
2018-07-26T05:19:48.734Z,63.95
2018-07-26T05:22:20.741Z,61.59
2018-07-26T05:24:29.680Z,59.49
2018-07-26T05:25:22.050Z,58.45
2018-07-26T05:26:02.482Z,58.55
2018-07-26T05:26:42.882Z,57.51
2018-07-26T05:27:23.307Z,57.32
2018-07-26T05:28:03.735Z,57.54
2018-07-26T05:33:12.926Z,54.2
2018-07-26T05:33:53.106Z,54.1
2018-07-26T05:34:33.534Z,53.25
2018-07-26T05:35:13.917Z,53.16
2018-07-26T05:35:54.279Z,53.06
2018-07-26T05:36:34.701Z,53.06
2018-07-26T05:39:31.548Z,52.67
2018-07-26T05:40:11.447Z,51.89
2018-07-26T05:44:46.622Z,51.53
2018-07-26T05:45:28.395Z,51.53
2018-07-26T05:46:08.701Z,51.53
2018-07-26T05:46:49.497Z,50.85
2018-07-26T05:47:32.682Z,50.48
2018-07-26T05:48:13.772Z,50.38
2018-07-26T05:48:55.070Z,49.99
2018-07-26T05:49:35.542Z,49.92
2018-07-26T05:50:16.028Z,49.24
2018-07-26T05:50:56.612Z,49.44
2018-07-26T05:51:36.892Z,49.66
2018-07-26T05:52:19.419Z,48.78
2018-07-26T05:52:59.914Z,48.58
2018-07-26T05:53:41.444Z,48.02
2018-07-26T05:54:22.190Z,47.92
2018-07-26T05:55:02.414Z,47.53
2018-07-26T05:55:43.196Z,47.36
2018-07-26T05:56:26.938Z,47.36
2018-07-26T05:57:20.949Z,46.59
2018-07-26T05:58:03.951Z,46.31
2018-07-26T05:58:43.905Z,46.12
2018-07-26T05:59:26.826Z,45.75
2018-07-26T06:00:07.860Z,45.65
2018-07-26T06:00:48.850Z,45.17
2018-07-26T06:01:29.661Z,45.26
2018-07-26T06:02:10.165Z,45.17
2018-07-26T06:02:53.188Z,44.97
2018-07-26T06:03:34.382Z,44.78
2018-07-26T06:09:07.199Z,44.51
2018-07-26T06:09:47.551Z,44.51
2018-07-26T06:10:27.904Z,43.95
2018-07-26T06:11:09.534Z,44.31
2018-07-26T06:11:48.809Z,44.12
2018-07-26T06:12:32.967Z,44.04
2018-07-26T06:13:16.801Z,43.55
2018-07-26T06:13:59.325Z,43.65
2018-07-26T06:14:39.841Z,43.48
2018-07-26T06:15:20.434Z,43.67
2018-07-26T06:16:02.293Z,43.28
2018-07-26T06:16:45.410Z,43.28
2018-07-26T06:17:24.441Z,43.08
2018-07-26T06:18:05.731Z,42.79
2018-07-26T06:18:46.216Z,42.4
2018-07-26T06:19:26.654Z,42.4
2018-07-26T06:20:07.118Z,42.21
2018-07-26T06:20:47.522Z,42.22
2018-07-26T06:21:27.978Z,42.13
2018-07-26T06:22:08.478Z,41.93
2018-07-26T06:31:46.440Z,40.23
2018-07-26T06:37:15.319Z,39.17
2018-07-26T06:37:55.595Z,39.07
2018-07-26T06:38:36.357Z,39.37
2018-07-26T06:39:16.822Z,38.78
2018-07-26T06:39:57.230Z,39.37
2018-07-26T06:40:38.438Z,39.64
2018-07-26T06:41:18.753Z,39.94
2018-07-26T06:41:59.237Z,40.31
2018-07-26T06:42:39.797Z,40.8
2018-07-26T06:43:20.277Z,40.9
2018-07-26T06:45:12.926Z,41.19
2018-07-26T06:45:54.423Z,41.19
2018-07-26T06:46:35.214Z,41.19
2018-07-26T06:47:16.102Z,41.19
2018-07-26T06:47:56.675Z,41.39
2018-07-26T06:48:41.067Z,41.96
2018-07-26T06:49:26.516Z,41.46
2018-07-26T06:50:07.043Z,42.05
2018-07-26T06:50:47.513Z,41.96
2018-07-26T06:51:28.581Z,41.96
2018-07-26T06:52:09.105Z,41.66
2018-07-26T06:52:51.022Z,41.96
2018-07-26T06:53:31.881Z,41.96
2018-07-26T06:54:12.288Z,41.86
2018-07-26T06:54:53.911Z,42.15
2018-07-26T06:55:33.434Z,42.05
2018-07-26T06:56:14.845Z,42.05
2018-07-26T06:57:00.417Z,42.25
2018-07-26T06:57:45.449Z,42.05
2018-07-26T06:58:25.893Z,41.96
2018-07-26T06:59:06.337Z,42.13
2018-07-26T06:59:48.725Z,42.15
2018-07-26T07:00:30.177Z,42.25
2018-07-26T07:01:10.696Z,42.05
2018-07-26T07:01:52.941Z,42.35
2018-07-26T07:02:33.805Z,42.15
2018-07-26T07:03:15.235Z,42.22
2018-07-26T07:03:59.509Z,42.35
2018-07-26T07:04:54.805Z,42.35
2018-07-26T07:05:36.449Z,42.15
2018-07-26T07:06:24.926Z,42.36
2018-07-26T07:07:13.696Z,41.96
2018-07-26T07:09:05.678Z,41.11
2018-07-26T07:09:45.905Z,39.94
2018-07-26T07:10:26.495Z,40.23
2018-07-26T07:11:06.829Z,41.11
2018-07-26T07:11:47.245Z,40.33
2018-07-26T07:12:27.743Z,40.43
2018-07-26T07:13:08.214Z,40.82
2018-07-26T07:13:48.624Z,40.82
2018-07-26T07:14:30.127Z,41.02
2018-07-26T07:15:10.636Z,40.33
2018-07-26T07:15:51.015Z,39.64
2018-07-26T07:16:31.392Z,40.23
2018-07-26T07:17:12.140Z,39.84
2018-07-26T07:17:54.497Z,40.25
2018-07-26T07:18:34.829Z,39.86
2018-07-26T07:19:15.453Z,39.47
2018-07-26T07:19:55.825Z,39.27
2018-07-26T07:20:36.330Z,38.98
2018-07-26T07:21:16.712Z,38.98
2018-07-26T07:21:58.917Z,38.59
2018-07-26T07:22:39.171Z,38.78
2018-07-26T07:23:19.594Z,38.68
2018-07-26T07:24:00.059Z,38.6
2018-07-26T07:24:40.496Z,38.6
2018-07-26T07:25:21.179Z,38.31
2018-07-26T07:26:01.711Z,38.31
2018-07-26T07:26:42.283Z,38.2
2018-07-26T07:27:22.723Z,38.39
2018-07-26T07:28:03.159Z,38.29
2018-07-26T07:28:43.779Z,38.6
2018-07-26T07:29:24.327Z,38.31
2018-07-26T07:30:04.689Z,38.31
2018-07-26T07:30:46.063Z,38.21
2018-07-26T07:31:26.521Z,38.21
2018-07-26T07:32:06.945Z,38.7
2018-07-26T07:32:48.321Z,38.51
2018-07-26T07:33:29.119Z,38.7
2018-07-26T07:34:09.579Z,38.41
2018-07-26T07:34:50.726Z,38.51
2018-07-26T07:35:31.773Z,38.31
2018-07-26T07:36:12.480Z,38.12
2018-07-26T07:36:54.893Z,38.12
2018-07-26T07:37:36.043Z,38.53
2018-07-26T07:38:17.705Z,37.74
2018-07-26T07:38:57.472Z,37.17
2018-07-26T07:39:38.169Z,37.45
2018-07-26T07:40:19.782Z,37.17
2018-07-26T07:40:59.622Z,37.46
2018-07-26T07:41:40.458Z,36.68
2018-07-26T07:42:21.029Z,36.99
2018-07-26T07:43:01.637Z,36.9
2018-07-26T07:43:42.118Z,36.4
2018-07-26T07:44:22.621Z,36.21
2018-07-26T07:45:03.708Z,36.01
2018-07-26T07:45:44.707Z,35.13
2018-07-26T07:46:26.254Z,35.13
2018-07-26T07:47:06.303Z,34.75
2018-07-26T07:47:48.008Z,34.46
2018-07-26T07:48:28.358Z,33.65
2018-07-26T07:49:09.412Z,33.65
2018-07-26T07:49:50.614Z,33.65
2018-07-26T07:50:31.899Z,33.77
2018-07-26T07:56:23.175Z,32.9
2018-07-26T07:57:03.626Z,32.61
2018-07-26T07:57:46.310Z,32.21
2018-07-26T07:58:26.531Z,32.53
2018-07-26T07:59:07.037Z,32.33
2018-07-26T07:59:47.491Z,32.23
2018-07-26T08:00:27.829Z,31.94
2018-07-26T08:01:08.408Z,32.53
2018-07-26T08:01:49.217Z,32.43
2018-07-26T08:02:30.163Z,31.85
2018-07-26T08:03:11.376Z,31.56
2018-07-26T08:03:51.985Z,30.97
2018-07-26T08:04:32.860Z,30.77
2018-07-26T08:05:13.734Z,30.18
2018-07-26T08:05:54.636Z,30.68
2018-07-26T08:06:36.527Z,30.95
2018-07-26T08:07:17.401Z,31.15
2018-07-26T08:07:57.148Z,31.23
2018-07-26T08:08:38.433Z,31.53
2018-07-26T08:09:19.407Z,31.53
2018-07-26T08:09:59.903Z,31.04
2018-07-26T08:10:41.599Z,30.85
2018-07-26T08:11:21.749Z,31.13
2018-07-26T08:12:02.367Z,31.33
2018-07-26T08:12:43.899Z,31.53
2018-07-26T08:13:23.761Z,31.35
2018-07-26T08:14:04.278Z,31.15
2018-07-26T08:14:45.211Z,31.25
2018-07-26T08:15:26.291Z,30.95
2018-07-26T08:16:06.397Z,30.97
2018-07-26T08:16:48.480Z,31.07
2018-07-26T08:17:29.669Z,30.97
2018-07-26T08:18:10.368Z,30.4
2018-07-26T08:18:50.784Z,29.8
2018-07-26T08:19:31.240Z,29.61
2018-07-26T08:20:14.151Z,29.31
2018-07-26T08:20:53.783Z,29.41
2018-07-26T08:21:35.204Z,29.31
2018-07-26T08:22:15.848Z,29.41
2018-07-26T08:22:57.393Z,29.41
2018-07-26T08:23:37.935Z,29.41
2018-07-26T08:24:18.596Z,29.41
2018-07-26T08:25:00.198Z,29.41
2018-07-26T08:25:40.438Z,29.59
2018-07-26T08:26:22.725Z,29.41
2018-07-26T08:27:04.884Z,29.41
2018-07-26T08:27:45.547Z,29.51
2018-07-26T08:28:26.756Z,29.51
2018-07-26T08:29:07.317Z,29.13
2018-07-26T08:29:49.110Z,28.93
2018-07-26T08:30:29.690Z,28.85
2018-07-26T08:31:10.482Z,28.83
2018-07-26T08:31:51.549Z,28.74
2018-07-26T08:32:32.655Z,28.93
2018-07-26T08:33:13.534Z,29.03
2018-07-26T08:33:54.530Z,29.23
2018-07-26T08:34:34.690Z,29.33
2018-07-26T08:35:16.393Z,29.33
2018-07-26T08:35:56.758Z,29.43
2018-07-26T08:36:37.357Z,29.53
2018-07-26T08:37:18.288Z,28.85
2018-07-26T08:37:59.896Z,28.65
2018-07-26T08:38:40.612Z,28.45
2018-07-26T08:39:20.480Z,28.26
2018-07-26T08:40:01.334Z,28.36
2018-07-26T08:40:42.412Z,28.36
2018-07-26T08:41:22.321Z,27.67
2018-07-26T08:42:04.956Z,28.26
2018-07-26T08:42:45.500Z,28.55
2018-07-26T08:43:26.332Z,28.26
2018-07-26T08:44:07.910Z,28.36
2018-07-26T08:44:48.352Z,28.26
2018-07-26T08:45:29.316Z,28.26
2018-07-26T08:46:09.737Z,28.16
2018-07-26T08:46:51.681Z,28.26
2018-07-26T08:47:32.177Z,28.36
2018-07-26T08:48:12.792Z,28.27
2018-07-26T08:48:53.460Z,28.37
2018-07-26T08:49:34.894Z,28.27
2018-07-26T08:50:15.414Z,28.36
2018-07-26T08:50:57.429Z,28.45
2018-07-26T08:51:38.309Z,28.65
2018-07-26T08:52:19.827Z,28.75
2018-07-26T08:53:01.032Z,28.75
2018-07-26T08:53:47.098Z,28.96
2018-07-26T08:54:40.545Z,28.68
2018-07-26T08:55:22.448Z,28.09
2018-07-26T08:56:05.034Z,27.51
2018-07-26T08:56:46.449Z,27.23
2018-07-26T08:57:26.370Z,26.92
2018-07-26T08:58:07.904Z,27.03
2018-07-26T08:58:50.425Z,27.33
2018-07-26T08:59:30.429Z,27.42
2018-07-26T09:00:10.988Z,27.42
2018-07-26T09:00:52.671Z,27.23
2018-07-26T09:01:33.434Z,27.13
2018-07-26T09:02:15.827Z,26.75
2018-07-26T09:02:57.385Z,26.46
2018-07-26T09:03:38.114Z,25.97
2018-07-26T09:04:20.019Z,25.68
2018-07-26T09:05:00.878Z,25.68
2018-07-26T09:05:41.232Z,25.68
2018-07-26T09:06:22.166Z,25.98
2018-07-26T09:07:03.759Z,25.89
2018-07-26T09:07:44.212Z,25.49
2018-07-26T09:08:24.903Z,25.39
2018-07-26T09:09:05.412Z,25.59
2018-07-26T09:09:46.190Z,25.59
2018-07-26T09:10:26.621Z,25.39
2018-07-26T09:11:07.446Z,25.39
2018-07-26T09:11:48.770Z,25.49
2018-07-26T09:12:29.354Z,25.19
2018-07-26T09:13:10.110Z,25.1
2018-07-26T09:13:51.158Z,25.1
2018-07-26T09:14:31.792Z,24.71
2018-07-26T09:15:13.416Z,24.92
2018-07-26T09:15:53.742Z,24.52
2018-07-26T09:16:34.674Z,24.13
2018-07-26T09:17:16.584Z,23.93
2018-07-26T09:17:57.166Z,24.13
2018-07-26T09:18:38.655Z,24.52
2018-07-26T09:19:20.025Z,24.62
2018-07-26T09:20:00.877Z,24.91
2018-07-26T09:20:41.278Z,24.61
2018-07-26T09:21:22.158Z,24.72
2018-07-26T09:22:02.534Z,24.72
2018-07-26T09:22:43.833Z,24.62
2018-07-26T09:23:24.730Z,23.73
2018-07-26T09:24:05.574Z,24.03
2018-07-26T09:24:46.774Z,23.84
2018-07-26T09:25:31.562Z,24.13
2018-07-26T09:26:13.208Z,23.55
2018-07-26T09:26:53.803Z,23.55
2018-07-26T09:31:54.187Z,23.16
2018-07-26T09:32:34.808Z,23.16
2018-07-26T09:33:15.364Z,23.36
2018-07-26T09:33:57.722Z,23.16
2018-07-26T09:34:38.631Z,22.27
2018-07-26T09:35:20.196Z,22.45
2018-07-26T09:36:00.834Z,23.05
2018-07-26T09:36:42.008Z,23.04
2018-07-26T09:38:17.318Z,23.35
2018-07-26T09:38:57.813Z,23.26
2018-07-26T09:39:38.767Z,22.86
2018-07-26T09:40:19.305Z,22.48
2018-07-26T09:40:59.993Z,22.58
2018-07-26T09:41:40.519Z,22.59
2018-07-26T09:42:22.126Z,22.39
2018-07-26T09:43:02.026Z,22.3
2018-07-26T09:43:44.974Z,22.4
2018-07-26T09:44:26.918Z,22.2
2018-07-26T09:45:07.690Z,22.02
2018-07-26T09:45:47.895Z,22.11
2018-07-26T09:46:29.493Z,21.83
2018-07-26T09:47:13.121Z,21.33
2018-07-26T09:55:59.292Z,20.54
2018-07-26T09:56:40.628Z,20.54
2018-07-26T09:57:22.263Z,20.15
2018-07-26T09:58:03.074Z,20.25
2018-07-26T09:58:42.640Z,20.24
2018-07-26T09:59:24.140Z,20.54
2018-07-26T10:00:05.604Z,20.35
2018-07-26T10:00:45.840Z,20.54
2018-07-26T10:01:27.329Z,20.83
2018-07-26T10:02:08.396Z,21.12
2018-07-26T10:02:48.882Z,21.31
2018-07-26T10:03:31.883Z,21.81
2018-07-26T10:04:11.410Z,21.81
2018-07-26T10:04:52.450Z,21.41
2018-07-26T10:43:31.670Z,16.88
2018-07-26T10:44:13.356Z,18.16
2018-07-26T10:44:52.878Z,18.16
2018-07-26T10:45:33.295Z,18.16
2018-07-26T10:46:14.614Z,18.35
2018-07-26T10:46:54.938Z,18.26
2018-07-26T10:47:35.867Z,18.56
2018-07-26T10:48:16.251Z,18.27
2018-07-26T10:48:58.719Z,18.16
2018-07-26T10:49:39.321Z,17.77
2018-07-26T10:50:20.211Z,17.97
2018-07-26T10:51:01.584Z,17.69
2018-07-26T10:51:42.166Z,17.09
2018-07-26T10:53:42.009Z,17.49
2018-07-26T10:56:00.597Z,17.77
2018-07-26T10:56:40.305Z,17.48
2018-07-26T10:57:29.537Z,17.58
2018-07-26T10:58:10.041Z,17.49
2018-07-26T10:58:50.580Z,17.4
2018-07-26T10:59:32.331Z,17.21
2018-07-26T11:00:13.476Z,17
2018-07-26T11:00:53.978Z,17.11
2018-07-26T11:01:35.092Z,16.52
2018-07-26T11:02:15.721Z,16.42
2018-07-26T11:02:56.278Z,16.52
2018-07-26T11:03:37.818Z,16.02
2018-07-26T11:04:18.843Z,16.02
2018-07-26T11:04:59.823Z,16.31
2018-07-26T11:05:41.082Z,16.52
2018-07-26T11:06:22.314Z,15.62
2018-07-26T11:07:02.942Z,15.72
2018-07-26T11:07:44.433Z,16.42
2018-07-26T11:08:24.903Z,15.62
2018-07-26T11:09:05.641Z,15.72
2018-07-26T11:12:20.715Z,16.01
2018-07-26T11:13:01.176Z,15.91
2018-07-26T11:13:41.687Z,15.81
2018-07-26T11:14:22.235Z,16.01
2018-07-26T11:15:03.119Z,15.8
2018-07-26T11:15:43.598Z,16.1
2018-07-26T11:18:26.838Z,16.39
2018-07-26T11:19:07.900Z,16.39
2018-07-26T11:19:48.607Z,16.49
2018-07-26T11:20:28.807Z,16.69
2018-07-26T11:21:15.521Z,16
2018-07-26T11:21:56.002Z,15.31
2018-07-26T11:33:16.868Z,14.82
2018-07-26T11:38:06.387Z,15.4
2018-07-26T11:38:48.874Z,15.3
2018-07-26T11:39:30.386Z,15.49
2018-07-26T11:40:11.475Z,15.89
2018-07-26T11:40:51.902Z,15.49
2018-07-26T11:41:32.715Z,15.69
2018-07-26T11:42:13.771Z,16.49
2018-07-26T11:42:57.326Z,16.59
2018-07-26T11:43:42.511Z,16.19
2018-07-26T11:44:23.886Z,15.91
2018-07-26T11:45:04.516Z,15.61
2018-07-26T11:45:45.026Z,15.21
2018-07-26T11:46:25.462Z,15.21
2018-07-26T11:48:43.410Z,15.2
2018-07-26T11:49:22.827Z,15.79
2018-07-26T11:50:03.186Z,16.09
2018-07-26T11:50:43.571Z,16.38
2018-07-26T11:51:24.146Z,15.97
2018-07-26T11:52:04.949Z,16.27
2018-07-26T11:52:45.512Z,16.66
2018-07-26T11:53:26.264Z,17.05
2018-07-26T11:54:07.037Z,16.95
2018-07-26T11:54:49.278Z,17.05
2018-07-26T11:55:30.788Z,17.25
2018-07-26T11:56:11.878Z,16.95
2018-07-26T11:56:54.489Z,16.75
2018-07-26T11:57:36.074Z,17.14
2018-07-26T12:05:51.425Z,16.37
2018-07-26T12:06:31.449Z,16.57
2018-07-26T12:07:12.057Z,16.67
2018-07-26T12:11:38.327Z,15.59
2018-07-26T12:12:18.725Z,15.69
2018-07-26T12:12:59.832Z,15.39
2018-07-26T12:13:40.387Z,15.79
2018-07-26T12:14:21.914Z,15.39
2018-07-26T12:15:02.329Z,15.39
2018-07-26T12:15:42.832Z,15.59
2018-07-26T12:16:23.330Z,15.7
2018-07-26T12:17:03.968Z,15.79
2018-07-26T12:17:44.811Z,15.69
2018-07-26T12:18:26.060Z,15.99
2018-07-26T12:19:06.743Z,15.68
2018-07-26T12:19:47.319Z,16.08
2018-07-26T12:20:27.809Z,16.28
2018-07-26T12:21:08.637Z,16.48
2018-07-26T12:21:49.355Z,16.48
2018-07-26T12:22:29.858Z,16.28
2018-07-26T12:23:10.417Z,16.09
2018-07-26T12:23:50.814Z,15.69
2018-07-26T12:24:31.284Z,15.3
2018-07-26T12:25:11.856Z,15.2
2018-07-26T12:25:52.869Z,15.19
2018-07-26T12:26:33.540Z,15.79
2018-07-26T12:27:15.663Z,15.49
2018-07-26T12:27:57.947Z,15.4
2018-07-26T12:28:38.164Z,15.21
2018-07-26T12:29:18.909Z,15.7
2018-07-26T12:29:59.382Z,16.09
2018-07-26T12:30:39.820Z,16.38
2018-07-26T12:31:21.271Z,16.58
2018-07-26T12:32:02.341Z,16.97
2018-07-26T12:32:43.150Z,16.97
2018-07-26T12:33:24.215Z,17.35
2018-07-26T12:36:34.845Z,18.42
2018-07-26T12:37:16.800Z,18.32
2018-07-26T12:37:56.928Z,18.12
2018-07-26T12:38:38.178Z,17.93
2018-07-26T12:39:18.519Z,18.23
2018-07-26T12:39:58.930Z,17.73
2018-07-26T12:40:39.387Z,17.63
2018-07-26T12:41:19.926Z,17.82
2018-07-26T12:42:00.383Z,17.63
2018-07-26T12:42:40.839Z,17.82
2018-07-26T12:43:21.324Z,17.72
2018-07-26T12:44:02.446Z,17.44
2018-07-26T12:44:45.959Z,17.05
2018-07-26T12:45:26.350Z,16.85
2018-07-26T12:46:07.308Z,17.06
2018-07-26T12:46:47.948Z,16.86
2018-07-26T12:47:29.035Z,16.97
2018-07-26T12:48:10.317Z,16.37
2018-07-26T12:48:51.363Z,16.47
2018-07-26T12:49:31.675Z,16.97
2018-07-26T12:50:13.315Z,16.96
2018-07-26T12:50:54.843Z,17.25
2018-07-26T12:51:35.282Z,17.25
2018-07-26T12:52:15.928Z,16.97
2018-07-26T12:52:57.794Z,16.47
2018-07-26T12:53:37.759Z,16.58
2018-07-26T12:54:20.506Z,15.67
2018-07-26T12:55:00.873Z,16.07
2018-07-26T12:55:42.166Z,15.88
2018-07-26T12:56:22.814Z,15.68
2018-07-26T12:57:09.531Z,15.39
2018-07-26T12:57:50.089Z,15.39
2018-07-26T12:58:31.016Z,15.19
2018-07-26T12:59:11.551Z,15.77
2018-07-26T12:59:55.931Z,15.77
2018-07-26T13:00:39.216Z,15.88
2018-07-26T13:01:19.168Z,15.68
2018-07-26T13:02:00.416Z,15.48
2018-07-26T13:02:41.253Z,15.39
2018-07-26T13:03:22.907Z,15.19
2018-07-26T13:04:03.834Z,15.3
2018-07-26T13:04:45.119Z,15.3
2018-07-26T13:05:25.989Z,15.3
2018-07-26T13:06:07.833Z,15.1
2018-07-26T13:06:48.327Z,15.19
2018-07-26T13:07:28.297Z,15.4
2018-07-26T13:08:11.815Z,15.4
2018-07-26T13:08:54.019Z,15.4
2018-07-26T13:09:34.824Z,15.2
2018-07-26T13:10:16.826Z,15.11
2018-07-26T13:10:58.357Z,14.71
2018-07-26T13:11:38.813Z,14.62
2018-07-26T13:12:18.623Z,14.62
2018-07-26T13:12:59.045Z,14.92
2018-07-26T13:13:39.932Z,15.03
2018-07-26T13:14:20.550Z,14.83
2018-07-26T13:15:01.006Z,14.83
2018-07-26T13:15:43.789Z,14.23
2018-07-26T13:17:37.706Z,14.44
2018-07-26T13:18:19.486Z,14.43
2018-07-26T13:19:00.028Z,14.24
2018-07-26T13:19:41.685Z,14.24
2018-07-26T13:20:22.531Z,14.64
2018-07-26T13:21:05.103Z,14.63
2018-07-26T13:21:45.640Z,14.23
2018-07-26T13:38:33.735Z,13.75
2018-07-26T13:39:10.847Z,13.75
2018-07-26T13:39:56.984Z,13.25
2018-07-26T13:40:44.449Z,13.35
2018-07-26T13:41:24.555Z,13.54
2018-07-26T13:42:04.943Z,13.75
2018-07-26T13:42:46.784Z,13.93
2018-07-26T13:43:28.487Z,14.23
2018-07-26T13:44:08.405Z,14.13
2018-07-26T13:44:49.247Z,14.22
2018-07-26T13:45:29.759Z,14.01
2018-07-26T13:46:10.497Z,13.32
2018-07-26T13:46:51.804Z,13.32
2018-07-26T13:47:33.473Z,13.71
2018-07-26T13:48:14.080Z,13.81
2018-07-26T13:48:54.856Z,14
2018-07-26T13:49:39.942Z,14.59
2018-07-26T13:50:20.102Z,14.39
2018-07-26T13:51:01.955Z,14.58
2018-07-26T13:51:42.341Z,14.58
2018-07-26T13:52:23.292Z,14.87
2018-07-26T13:53:03.994Z,15.08
2018-07-26T13:54:01.480Z,15.56
2018-07-26T13:54:44.456Z,15.86
2018-07-26T13:55:24.438Z,16.25
2018-07-26T13:56:04.913Z,16.25
2018-07-26T13:56:47.563Z,16.25
2018-07-26T14:00:14.479Z,16.15
2018-07-26T14:00:57.519Z,16.16
2018-07-26T14:01:40.106Z,15.66
2018-07-26T14:02:21.648Z,15.87
2018-07-26T14:03:01.986Z,15.27
2018-07-26T14:03:42.925Z,15.18
2018-07-26T14:04:23.321Z,15.18
2018-07-26T14:05:04.030Z,15.08
2018-07-26T14:05:44.590Z,15.08
2018-07-26T14:06:25.473Z,14.88
2018-07-26T14:07:06.391Z,14.88
2018-07-26T14:07:46.726Z,14.98
2018-07-26T14:08:27.132Z,14.78
2018-07-26T14:09:07.974Z,14.78
2018-07-26T14:09:48.392Z,14.88
2018-07-26T14:10:31.880Z,14.69
2018-07-26T14:11:14.920Z,14.78
2018-07-26T14:11:57.406Z,15.08
2018-07-26T14:12:37.771Z,14.79
2018-07-26T14:13:18.272Z,14.59
2018-07-26T14:14:02.702Z,14.79
2018-07-26T14:14:42.660Z,14.79
2018-07-26T14:15:23.056Z,14.89
2018-07-26T14:16:03.955Z,14.5
2018-07-26T14:16:44.748Z,14.4
2018-07-26T14:17:29.078Z,14.3
2018-07-26T14:22:49.676Z,14.12
2018-07-26T14:23:28.894Z,14.03
2018-07-26T14:24:09.416Z,13.74
2018-07-26T14:26:23.187Z,13.15
2018-07-26T14:27:04.949Z,12.16
2018-07-26T14:33:08.294Z,11.96
2018-07-26T14:33:48.865Z,12.16
2018-07-26T14:34:32.576Z,12.05
2018-07-26T14:35:13.384Z,12.24
2018-07-26T14:37:33.968Z,12.34
2018-07-26T14:38:14.532Z,12.24
2018-07-26T14:38:54.974Z,12.63
2018-07-26T14:39:35.940Z,12.93
2018-07-26T14:40:16.443Z,13.41
2018-07-26T14:40:57.059Z,13.81
2018-07-26T14:41:37.631Z,14.3
2018-07-26T14:42:19.025Z,14.69
2018-07-26T14:42:59.447Z,14.79
2018-07-26T14:43:41.949Z,14.98
2018-07-26T14:44:22.780Z,14.78
2018-07-26T14:45:03.232Z,14.78
2018-07-26T14:45:44.225Z,15.28
2018-07-26T14:46:25.006Z,15.27
2018-07-26T14:47:05.583Z,15.17
2018-07-26T14:47:46.961Z,15.87
2018-07-26T14:48:27.396Z,15.86
2018-07-26T14:49:07.912Z,16.25
2018-07-26T14:49:48.267Z,16.44
2018-07-26T14:50:28.710Z,17.13
2018-07-26T14:51:09.340Z,16.64
2018-07-26T14:51:49.729Z,17.33
2018-07-26T14:52:30.137Z,17.42
2018-07-26T14:53:10.727Z,17.42
2018-07-26T14:53:51.620Z,17.71
2018-07-26T14:54:32.044Z,18.1
2018-07-26T14:55:13.014Z,18.19
2018-07-26T14:55:53.939Z,18.39
2018-07-26T14:56:34.394Z,18.1
2018-07-26T14:57:15.778Z,18.1
2018-07-26T14:57:59.336Z,18.39
2018-07-26T14:58:41.646Z,18.19
2018-07-26T15:02:14.511Z,17.02
2018-07-26T15:02:52.865Z,16.93
2018-07-26T15:03:33.497Z,16.93
2018-07-26T15:04:14.088Z,17.03
2018-07-26T15:04:55.746Z,17.43
2018-07-26T15:05:35.408Z,17.33
2018-07-26T15:06:16.196Z,17.54
2018-07-26T15:06:57.730Z,17.23
2018-07-26T15:10:12.914Z,16.93
2018-07-26T15:10:53.235Z,17.03
2018-07-26T15:11:33.687Z,16.93
2018-07-26T15:12:14.166Z,16.93
2018-07-26T15:12:55.076Z,17.53
2018-07-26T15:13:35.513Z,17.32
2018-07-26T15:14:16.793Z,17.72
2018-07-26T15:14:58.022Z,17.61
2018-07-26T15:15:39.982Z,18.01
2018-07-26T15:16:20.678Z,17.99
2018-07-26T15:17:00.848Z,18.18
2018-07-26T15:17:43.597Z,18.18
2018-07-26T15:18:24.653Z,18.78
2018-07-26T15:19:05.186Z,18.58
2018-07-26T15:19:45.965Z,18.58
2018-07-26T15:20:26.599Z,18.57
2018-07-26T15:21:07.121Z,18.87
2018-07-26T15:21:48.094Z,19.26
2018-07-26T15:23:35.890Z,18.58
2018-07-26T15:24:18.104Z,19.07
2018-07-26T15:24:59.207Z,18.97
2018-07-26T15:25:40.425Z,18.87
2018-07-26T15:26:21.073Z,18.97
2018-07-26T15:27:02.408Z,18.46
2018-07-26T15:27:43.915Z,18.76
2018-07-26T15:28:25.841Z,18.27
2018-07-26T15:29:07.805Z,18.48
2018-07-26T15:29:48.103Z,18.57
2018-07-26T15:30:28.489Z,18.48
2018-07-26T15:31:10.738Z,18.48
2018-07-26T15:31:53.370Z,18.07
2018-07-26T15:32:35.723Z,18.27
2018-07-26T15:33:16.249Z,18.07
2018-07-26T15:33:57.649Z,18.27
2018-07-26T15:34:41.522Z,18.17
2018-07-26T15:35:22.299Z,17.28
2018-07-26T15:36:02.815Z,17.47
2018-07-26T15:36:44.004Z,17.57
2018-07-26T15:37:24.157Z,17.68
2018-07-26T15:38:06.762Z,17.77
2018-07-26T15:46:05.621Z,17.18
2018-07-26T15:56:23.835Z,17.95
2018-07-26T15:57:07.577Z,20.52
2018-07-26T15:57:49.363Z,21.2
2018-07-26T15:58:29.902Z,21.89
2018-07-26T15:59:11.929Z,21.98
2018-07-26T15:59:52.215Z,22.28
2018-07-26T16:00:33.968Z,22.37
2018-07-26T16:01:14.987Z,23.16
2018-07-26T16:01:56.488Z,23.26
2018-07-26T16:02:36.759Z,23.55
2018-07-26T16:03:17.814Z,23.46
2018-07-26T16:03:58.449Z,23.36
2018-07-26T16:04:40.057Z,24.05
2018-07-26T16:05:20.325Z,24.15
2018-07-26T16:06:00.624Z,24.04
2018-07-26T16:06:42.967Z,23.54
2018-07-26T16:07:23.685Z,23.74
2018-07-26T16:43:48.805Z,28.37
2018-07-26T16:45:37.320Z,28.29
2018-07-26T16:47:53.459Z,28.19
2018-07-26T16:48:33.873Z,27.89
2018-07-26T16:49:14.282Z,28.09
2018-07-26T16:51:02.191Z,27.5
2018-07-26T16:51:42.596Z,27.6
2018-07-26T16:53:55.732Z,27.02
2018-07-26T16:57:57.945Z,26.64
2018-07-26T17:01:44.409Z,25.95
2018-07-26T17:05:08.324Z,25.38
2018-07-26T17:06:58.016Z,25.18
2018-07-26T17:13:26.572Z,24.7
2018-07-26T19:14:44.668Z,30.98
2018-07-26T19:15:37.057Z,30.99
2018-07-26T19:16:31.577Z,30.99
2018-07-26T19:19:24.946Z,31.27
2018-07-26T19:21:17.408Z,31.67
2018-07-26T19:22:18.792Z,31.76
2018-07-26T19:43:06.917Z,34.47
2018-07-26T19:43:58.935Z,34.57
2018-07-26T19:44:48.448Z,34.67
2018-07-26T19:45:42.860Z,34.77
2018-07-26T19:52:01.171Z,35.73
2018-07-26T19:52:43.600Z,35.93
2018-07-26T19:53:24.858Z,35.83
2018-07-26T19:54:05.221Z,35.91
2018-07-26T19:54:46.999Z,36.4
2018-07-26T19:55:26.878Z,36.59
2018-07-26T19:56:07.265Z,36.59
2018-07-26T19:56:47.679Z,37.37
2018-07-26T19:57:28.221Z,37.75
2018-07-26T19:58:08.956Z,37.95
2018-07-26T19:58:49.520Z,38.34
2018-07-26T19:59:29.911Z,38.81
2018-07-26T20:00:10.334Z,38.81
2018-07-26T20:00:51.007Z,39.2
2018-07-26T20:01:31.404Z,39.1
2018-07-26T20:02:11.890Z,39.49
2018-07-26T20:02:52.514Z,39.49
2018-07-26T20:03:33.030Z,39.69
2018-07-26T20:04:13.896Z,39.78
